createdAt,value
2022-10-21T00:01:52.565Z,100543.84
2022-10-21T00:04:19.025Z,100542.50
2022-10-21T00:06:46.811Z,100536.13
2022-10-21T00:09:13.310Z,100531.47
2022-10-21T00:11:39.719Z,100524.84
2022-10-21T00:14:11.671Z,100520.03
2022-10-21T00:16:38.072Z,100523.38
2022-10-21T00:19:04.609Z,100517.00
2022-10-21T00:21:34.049Z,100520.38
2022-10-21T00:24:00.453Z,100522.38
2022-10-21T00:26:26.972Z,100505.38
2022-10-21T00:28:57.238Z,100508.75
2022-10-21T00:31:24.935Z,100513.22
2022-10-21T00:33:54.039Z,100493.22
2022-10-21T00:36:20.445Z,100485.28
2022-10-21T00:38:48.466Z,100495.09
2022-10-21T00:41:17.581Z,100486.25
2022-10-21T00:44:01.665Z,100488.72
2022-10-21T00:46:45.882Z,100491.97
2022-10-21T00:49:32.054Z,100491.09
2022-10-21T00:52:01.323Z,100492.72
2022-10-21T00:54:39.163Z,100497.66
2022-10-21T00:57:06.062Z,100502.94
2022-10-21T00:59:43.925Z,100503.03
2022-10-21T01:02:10.553Z,100502.00
2022-10-21T01:04:37.057Z,100506.38
2022-10-21T01:07:08.921Z,100512.06
2022-10-21T01:09:35.317Z,100505.47
2022-10-21T01:12:05.032Z,100513.31
2022-10-21T01:14:53.368Z,100514.19
2022-10-21T01:17:43.823Z,100515.53
2022-10-21T01:20:57.380Z,100506.81
2022-10-21T01:23:54.600Z,100507.25
2022-10-21T01:27:11.578Z,100503.31
2022-10-21T01:30:07.415Z,100501.41
2022-10-21T01:32:45.796Z,100502.66
2022-10-21T01:35:26.664Z,100498.75
2022-10-21T01:38:12.517Z,100487.91
2022-10-21T01:41:08.191Z,100483.53
2022-10-21T01:43:45.741Z,100480.44
2022-10-21T01:46:23.504Z,100478.53
2022-10-21T01:48:55.458Z,100472.56
2022-10-21T01:51:26.415Z,100465.88
2022-10-21T01:54:00.247Z,100452.44
2022-10-21T01:56:28.962Z,100448.22
2022-10-21T01:58:56.648Z,100449.97
2022-10-21T02:01:27.361Z,100447.84
2022-10-21T02:03:59.054Z,100442.09
2022-10-21T02:06:25.594Z,100432.78
2022-10-21T02:08:54.819Z,100426.31
2022-10-21T02:11:21.666Z,100425.34
2022-10-21T02:14:03.921Z,100424.88
2022-10-21T02:16:36.614Z,100429.09
2022-10-21T02:19:03.745Z,100419.75
2022-10-21T02:21:36.863Z,100418.50
2022-10-21T02:24:25.571Z,100405.94
2022-10-21T02:26:52.070Z,100401.34
2022-10-21T02:29:24.242Z,100412.25
2022-10-21T02:32:09.380Z,100411.25
2022-10-21T02:34:55.550Z,100405.09
2022-10-21T02:37:40.211Z,100395.69
2022-10-21T02:40:13.400Z,100396.19
2022-10-21T02:42:46.075Z,100402.75
2022-10-21T02:45:12.536Z,100394.88
2022-10-21T02:47:40.486Z,100399.44
2022-10-21T02:50:07.598Z,100397.16
2022-10-21T02:52:34.127Z,100398.13
2022-10-21T02:55:00.559Z,100393.91
2022-10-21T02:57:27.044Z,100391.66
2022-10-21T02:59:53.582Z,100386.94
2022-10-21T03:02:20.049Z,100379.81
2022-10-21T03:04:46.497Z,100389.03
2022-10-21T03:07:12.958Z,100389.53
2022-10-21T03:09:39.497Z,100386.91
2022-10-21T03:12:06.004Z,100392.91
2022-10-21T03:14:32.460Z,100398.56
2022-10-21T03:16:59.145Z,100401.00
2022-10-21T03:19:25.563Z,100399.97
2022-10-21T03:21:52.010Z,100399.22
2022-10-21T03:24:28.080Z,100403.81
2022-10-21T03:26:55.955Z,100403.53
2022-10-21T03:29:22.417Z,100401.16
2022-10-21T03:31:49.061Z,100404.34
2022-10-21T03:34:15.736Z,100382.69
2022-10-21T03:36:44.188Z,100387.44
2022-10-21T03:39:11.754Z,100383.97
2022-10-21T03:41:38.426Z,100380.84
2022-10-21T03:44:05.035Z,100385.66
2022-10-21T03:46:32.173Z,100372.28
2022-10-21T03:49:04.995Z,100363.22
2022-10-21T03:51:34.034Z,100378.47
2022-10-21T03:54:00.528Z,100370.41
2022-10-21T03:56:27.065Z,100371.25
2022-10-21T03:58:57.763Z,100375.25
2022-10-21T04:01:28.539Z,100372.84
2022-10-21T04:03:55.124Z,100365.81
2022-10-21T04:06:21.627Z,100366.66
2022-10-21T04:08:48.140Z,100370.31
2022-10-21T04:11:14.680Z,100368.41
2022-10-21T04:13:41.337Z,100375.16
2022-10-21T04:16:14.701Z,100365.38
2022-10-21T04:18:41.173Z,100365.38
2022-10-21T04:21:08.798Z,100363.72
2022-10-21T04:23:35.792Z,100362.97
2022-10-21T04:26:19.684Z,100369.25
2022-10-21T04:28:46.127Z,100369.25
2022-10-21T04:31:15.420Z,100368.53
2022-10-21T04:33:41.858Z,100363.38
2022-10-21T04:36:08.299Z,100359.81
2022-10-21T04:38:37.114Z,100362.59
2022-10-21T04:41:04.392Z,100361.03
2022-10-21T04:43:30.816Z,100367.78
2022-10-21T04:46:01.800Z,100356.66
2022-10-21T04:48:28.337Z,100353.25
2022-10-21T04:50:55.345Z,100359.56
2022-10-21T04:53:22.662Z,100355.31
2022-10-21T04:55:53.244Z,100348.16
2022-10-21T04:58:22.056Z,100347.41
2022-10-21T05:00:50.267Z,100359.28
2022-10-21T05:03:16.793Z,100356.22
2022-10-21T05:05:43.269Z,100360.19
2022-10-21T05:08:11.639Z,100359.81
2022-10-21T05:10:38.498Z,100356.63
2022-10-21T05:13:06.037Z,100361.41
2022-10-21T05:15:34.724Z,100361.47
2022-10-21T05:18:01.191Z,100354.69
2022-10-21T05:20:28.085Z,100347.56
2022-10-21T05:22:54.556Z,100344.38
2022-10-21T05:25:21.874Z,100343.53
2022-10-21T05:27:51.531Z,100353.13
2022-10-21T05:30:18.127Z,100354.78
2022-10-21T05:32:44.649Z,100352.34
2022-10-21T05:35:14.035Z,100352.75
2022-10-21T05:37:40.459Z,100342.06
2022-10-21T05:40:07.733Z,100332.91
2022-10-21T05:42:34.199Z,100338.81
2022-10-21T05:45:00.626Z,100336.03
2022-10-21T05:47:27.057Z,100340.81
2022-10-21T05:49:53.539Z,100343.16
2022-10-21T05:52:20.003Z,100331.72
2022-10-21T05:54:46.455Z,100328.94
2022-10-21T05:57:12.987Z,100333.25
2022-10-21T05:59:39.376Z,100324.56
2022-10-21T06:02:10.210Z,100324.22
2022-10-21T06:04:38.759Z,100323.91
2022-10-21T06:07:05.518Z,100323.97
2022-10-21T06:09:31.952Z,100333.56
2022-10-21T06:11:58.378Z,100321.72
2022-10-21T06:14:26.375Z,100320.97
2022-10-21T06:16:52.841Z,100313.78
2022-10-21T06:19:19.260Z,100309.47
2022-10-21T06:21:47.142Z,100307.47
2022-10-21T06:24:13.666Z,100305.53
2022-10-21T06:26:40.133Z,100315.06
2022-10-21T06:29:07.140Z,100330.13
2022-10-21T06:31:33.660Z,100327.38
2022-10-21T06:34:01.276Z,100330.66
2022-10-21T06:36:27.905Z,100332.13
2022-10-21T06:38:54.303Z,100331.00
2022-10-21T06:41:20.678Z,100340.13
2022-10-21T06:43:47.077Z,100331.06
2022-10-21T06:46:15.707Z,100338.19
2022-10-21T06:48:42.318Z,100335.78
2022-10-21T06:51:15.024Z,100329.00
2022-10-21T06:53:41.928Z,100331.28
2022-10-21T06:56:14.282Z,100341.94
2022-10-21T06:58:43.367Z,100335.91
2022-10-21T07:01:27.632Z,100333.88
2022-10-21T07:04:01.607Z,100345.72
2022-10-21T07:06:28.143Z,100340.16
2022-10-21T07:08:59.004Z,100346.06
2022-10-21T07:11:26.907Z,100350.78
2022-10-21T07:13:53.561Z,100355.50
2022-10-21T07:16:27.410Z,100356.22
2022-10-21T07:18:55.118Z,100361.28
2022-10-21T07:21:23.850Z,100363.56
2022-10-21T07:23:51.891Z,100365.88
2022-10-21T07:26:20.826Z,100371.72
2022-10-21T07:28:48.024Z,100371.59
2022-10-21T07:31:19.555Z,100367.53
2022-10-21T07:33:46.384Z,100372.59
2022-10-21T07:36:19.240Z,100370.09
2022-10-21T07:38:47.296Z,100375.63
2022-10-21T07:41:20.148Z,100380.00
2022-10-21T07:43:46.878Z,100384.66
2022-10-21T07:46:13.365Z,100390.88
2022-10-21T07:48:39.936Z,100374.50
2022-10-21T07:51:09.060Z,100387.41
2022-10-21T07:53:36.089Z,100398.00
2022-10-21T07:56:19.013Z,100392.72
2022-10-21T07:58:46.965Z,100390.59
2022-10-21T08:01:14.797Z,100399.66
2022-10-21T08:03:41.483Z,100402.38
2022-10-21T08:06:09.936Z,100404.25
2022-10-21T08:08:36.932Z,100420.44
2022-10-21T08:11:05.022Z,100420.28
2022-10-21T08:13:32.212Z,100412.97
2022-10-21T08:15:59.071Z,100412.81
2022-10-21T08:18:26.407Z,100409.13
2022-10-21T08:20:53.101Z,100407.03
2022-10-21T08:23:21.179Z,100391.81
2022-10-21T08:25:49.962Z,100390.53
2022-10-21T08:28:17.717Z,100394.38
2022-10-21T08:30:44.608Z,100401.41
2022-10-21T08:33:12.428Z,100399.34
2022-10-21T08:35:39.431Z,100400.38
2022-10-21T08:40:46.027Z,100402.13
2022-10-21T08:43:26.288Z,100407.19
2022-10-21T08:46:00.718Z,100400.31
2022-10-21T08:48:35.120Z,100400.66
2022-10-21T08:51:03.836Z,100405.00
2022-10-21T08:53:34.652Z,100402.81
2022-10-21T08:56:13.478Z,100397.28
2022-10-21T08:58:44.758Z,100403.84
2022-10-21T09:01:37.832Z,100401.03
2022-10-21T09:04:04.295Z,100400.63
2022-10-21T09:07:00.218Z,100401.47
2022-10-21T09:09:35.722Z,100398.28
2022-10-21T09:12:17.519Z,100405.78
2022-10-21T09:15:11.365Z,100400.94
2022-10-21T09:17:44.012Z,100404.50
2022-10-21T09:20:35.408Z,100403.97
2022-10-21T09:23:28.667Z,100400.53
2022-10-21T09:26:01.021Z,100405.78
2022-10-21T09:28:30.414Z,100408.66
2022-10-21T09:31:00.568Z,100415.13
2022-10-21T09:33:30.350Z,100426.22
2022-10-21T09:36:03.670Z,100418.84
2022-10-21T09:38:56.560Z,100419.84
2022-10-21T09:41:29.620Z,100425.09
2022-10-21T09:43:56.468Z,100431.13
2022-10-21T09:46:23.111Z,100429.88
2022-10-21T09:49:25.806Z,100440.31
2022-10-21T09:51:42.553Z,100441.41
2022-10-21T09:54:17.733Z,100442.66
2022-10-21T09:56:50.039Z,100456.63
2022-10-21T09:59:19.445Z,100455.41
2022-10-21T10:01:46.662Z,100455.84
2022-10-21T10:04:17.007Z,100456.75
2022-10-21T10:06:44.951Z,100454.94
2022-10-21T10:09:15.341Z,100458.19
2022-10-21T10:11:57.044Z,100454.50
2022-10-21T10:14:27.242Z,100452.81
2022-10-21T10:16:53.769Z,100455.50
2022-10-21T10:19:23.368Z,100451.13
2022-10-21T10:22:10.429Z,100453.16
2022-10-21T10:24:40.450Z,100454.72
2022-10-21T10:27:13.954Z,100451.47
2022-10-21T10:29:42.195Z,100464.56
2022-10-21T10:32:14.449Z,100469.69
2022-10-21T10:34:54.093Z,100478.56
2022-10-21T10:37:31.299Z,100494.41
2022-10-21T10:39:59.896Z,100503.81
2022-10-21T10:42:33.549Z,100500.69
2022-10-21T10:45:05.691Z,100498.22
2022-10-21T10:47:41.867Z,100509.94
2022-10-21T10:50:47.283Z,100505.03
2022-10-21T10:53:32.907Z,100502.13
2022-10-21T10:56:04.636Z,100497.44
2022-10-21T10:58:35.726Z,100495.06
2022-10-21T11:01:08.512Z,100496.41
2022-10-21T11:03:42.334Z,100495.19
2022-10-21T11:06:18.065Z,100492.50
2022-10-21T11:08:52.487Z,100482.66
2022-10-21T11:11:35.726Z,100481.91
2022-10-21T11:14:02.337Z,100500.78
2022-10-21T11:16:50.539Z,100506.38
2022-10-21T11:19:44.421Z,100505.13
2022-10-21T11:22:49.046Z,100490.72
2022-10-21T11:25:45.901Z,100488.25
2022-10-21T11:28:44.308Z,100482.88
2022-10-21T11:31:43.913Z,100486.91
2022-10-21T11:34:20.206Z,100493.31
2022-10-21T11:37:05.745Z,100493.75
2022-10-21T11:39:51.545Z,100492.28
2022-10-21T11:42:47.024Z,100493.88
2022-10-21T11:45:19.362Z,100492.50
2022-10-21T11:48:15.163Z,100485.13
2022-10-21T11:50:48.532Z,100479.56
2022-10-21T11:53:33.324Z,100479.22
2022-10-21T11:56:24.670Z,100487.84
2022-10-21T12:02:17.390Z,100477.66
2022-10-21T12:04:59.129Z,100463.06
2022-10-21T12:07:35.418Z,100471.00
2022-10-21T12:10:01.799Z,100478.41
2022-10-21T12:12:39.622Z,100476.00
2022-10-21T12:15:15.115Z,100478.81
2022-10-21T12:17:42.099Z,100471.50
2022-10-21T12:20:23.964Z,100471.94
2022-10-21T12:22:56.910Z,100473.91
2022-10-21T12:25:49.271Z,100467.53
2022-10-21T12:28:45.851Z,100469.91
2022-10-21T12:31:30.257Z,100464.53
2022-10-21T12:33:57.802Z,100451.44
2022-10-21T12:36:24.172Z,100457.38
2022-10-21T12:38:53.728Z,100455.28
2022-10-21T12:41:31.758Z,100452.34
2022-10-21T12:44:01.163Z,100448.63
2022-10-21T12:46:42.337Z,100451.25
2022-10-21T12:49:32.350Z,100447.13
2022-10-21T12:52:07.912Z,100448.78
2022-10-21T12:54:40.605Z,100437.41
2022-10-21T12:57:10.730Z,100432.09
2022-10-21T12:59:38.285Z,100432.66
2022-10-21T13:02:04.637Z,100428.53
2022-10-21T13:04:34.200Z,100429.91
2022-10-21T13:07:16.641Z,100421.41
2022-10-21T13:09:52.296Z,100426.72
2022-10-21T13:12:22.919Z,100427.97
2022-10-21T13:14:57.752Z,100428.59
2022-10-21T13:17:31.089Z,100425.69
2022-10-21T13:20:20.070Z,100424.59
2022-10-21T13:23:01.909Z,100413.50
2022-10-21T13:25:34.607Z,100420.66
2022-10-21T13:28:19.644Z,100420.84
2022-10-21T13:30:49.158Z,100420.84
2022-10-21T13:33:21.908Z,100425.19
2022-10-21T13:35:53.557Z,100419.88
2022-10-21T13:38:30.710Z,100427.38
2022-10-21T13:41:02.779Z,100425.50
2022-10-21T13:43:40.689Z,100434.09
2022-10-21T13:46:07.314Z,100430.97
2022-10-21T13:48:42.434Z,100442.97
2022-10-21T13:51:17.931Z,100450.47
2022-10-21T13:53:48.088Z,100446.56
2022-10-21T13:56:34.948Z,100453.09
2022-10-21T13:59:02.095Z,100441.72
2022-10-21T14:01:52.558Z,100443.28
2022-10-21T14:04:28.230Z,100447.34
2022-10-21T14:07:08.123Z,100452.03
2022-10-21T14:09:42.845Z,100452.63
2022-10-21T14:12:33.683Z,100452.03
2022-10-21T14:15:14.131Z,100450.66
2022-10-21T14:17:43.995Z,100446.13
2022-10-21T14:20:16.419Z,100448.81
2022-10-21T14:22:49.921Z,100440.72
2022-10-21T14:25:18.448Z,100455.13
2022-10-21T14:27:47.109Z,100454.56
2022-10-21T14:30:24.680Z,100448.06
2022-10-21T14:32:52.222Z,100444.53
2022-10-21T14:35:18.600Z,100438.09
2022-10-21T14:37:50.418Z,100434.66
2022-10-21T14:40:26.662Z,100436.75
2022-10-21T14:42:55.072Z,100444.56
2022-10-21T14:45:26.488Z,100442.78
2022-10-21T14:48:02.448Z,100433.03
2022-10-21T14:50:28.951Z,100435.66
2022-10-21T14:52:55.674Z,100429.44
2022-10-21T14:55:30.012Z,100435.00
2022-10-21T14:58:08.591Z,100434.09
2022-10-21T15:00:41.446Z,100438.16
2022-10-21T15:03:10.433Z,100433.00
2022-10-21T15:05:39.706Z,100422.06
2022-10-21T15:08:21.407Z,100435.03
2022-10-21T15:10:56.804Z,100417.38
2022-10-21T15:13:25.452Z,100427.38
2022-10-21T15:15:57.562Z,100425.09
2022-10-21T15:18:23.983Z,100416.00
2022-10-21T15:20:59.546Z,100419.59
2022-10-21T15:23:34.178Z,100416.53
2022-10-21T15:26:09.062Z,100419.34
2022-10-21T15:28:36.477Z,100418.75
2022-10-21T15:31:05.090Z,100413.47
2022-10-21T15:33:31.564Z,100421.13
2022-10-21T15:36:04.829Z,100422.06
2022-10-21T15:38:31.358Z,100421.00
2022-10-21T15:40:57.899Z,100415.53
2022-10-21T15:43:24.312Z,100423.00
2022-10-21T15:45:50.851Z,100418.03
2022-10-21T15:48:17.313Z,100429.72
2022-10-21T15:50:44.414Z,100419.25
2022-10-21T15:53:11.242Z,100415.81
2022-10-21T15:55:38.631Z,100411.31
2022-10-21T15:58:06.229Z,100425.50
2022-10-21T16:00:38.645Z,100420.06
2022-10-21T16:03:08.042Z,100425.81
2022-10-21T16:05:34.904Z,100434.38
2022-10-21T16:08:01.388Z,100439.34
2022-10-21T16:10:37.161Z,100438.72
2022-10-21T16:13:04.305Z,100439.50
2022-10-21T16:15:30.724Z,100444.34
2022-10-21T16:17:58.114Z,100443.84
2022-10-21T16:20:30.160Z,100448.03
2022-10-21T16:23:00.518Z,100441.63
2022-10-21T16:25:29.443Z,100447.41
2022-10-21T16:27:56.674Z,100445.66
2022-10-21T16:30:32.497Z,100449.44
2022-10-21T16:32:58.913Z,100442.81
2022-10-21T16:35:25.416Z,100451.38
2022-10-21T16:37:51.928Z,100449.00
2022-10-21T16:40:21.466Z,100451.16
2022-10-21T16:42:49.246Z,100444.28
2022-10-21T16:45:16.610Z,100448.78
2022-10-21T16:47:48.152Z,100454.34
2022-10-21T16:50:19.544Z,100454.09
2022-10-21T16:52:46.059Z,100458.41
2022-10-21T16:55:13.338Z,100454.53
2022-10-21T16:57:40.074Z,100464.44
2022-10-21T17:00:07.376Z,100462.22
2022-10-21T17:02:37.946Z,100463.47
2022-10-21T17:05:12.657Z,100467.44
2022-10-21T17:07:39.199Z,100473.72
2022-10-21T17:10:06.153Z,100472.41
2022-10-21T17:12:33.938Z,100468.75
2022-10-21T17:15:01.227Z,100457.59
2022-10-21T17:17:27.765Z,100469.50
2022-10-21T17:19:54.277Z,100472.56
2022-10-21T17:22:20.781Z,100471.25
2022-10-21T17:24:48.330Z,100485.44
2022-10-21T17:27:19.575Z,100478.53
2022-10-21T17:29:46.599Z,100485.25
2022-10-21T17:32:13.390Z,100481.47
2022-10-21T17:34:40.313Z,100490.19
2022-10-21T17:37:08.508Z,100492.41
2022-10-21T17:39:34.994Z,100492.19
2022-10-21T17:42:01.942Z,100495.44
2022-10-21T17:44:28.914Z,100495.66
2022-10-21T17:46:55.520Z,100495.75
2022-10-21T17:49:24.001Z,100498.31
2022-10-21T17:51:51.218Z,100498.44
2022-10-21T17:54:21.413Z,100504.56
2022-10-21T17:56:51.643Z,100508.25
2022-10-21T17:59:18.555Z,100505.69
2022-10-21T18:01:45.693Z,100513.75
2022-10-21T18:04:12.631Z,100512.38
2022-10-21T18:06:39.860Z,100519.19
2022-10-21T18:09:08.364Z,100522.53
2022-10-21T18:11:36.099Z,100520.19
2022-10-21T18:14:02.626Z,100529.00
2022-10-21T18:16:29.079Z,100528.66
2022-10-21T18:19:00.101Z,100529.09
2022-10-21T18:21:29.353Z,100519.25
2022-10-21T18:23:55.927Z,100528.63
2022-10-21T18:26:28.311Z,100523.25
2022-10-21T18:29:04.099Z,100530.09
2022-10-21T18:31:34.093Z,100523.84
2022-10-21T18:34:03.025Z,100522.72
2022-10-21T18:36:29.996Z,100513.75
2022-10-21T18:38:58.171Z,100519.09
2022-10-21T18:41:24.926Z,100516.81
2022-10-21T18:43:54.171Z,100506.28
2022-10-21T18:46:21.337Z,100506.53
2022-10-21T18:48:47.837Z,100508.59
2022-10-21T18:51:15.635Z,100511.56
2022-10-21T18:53:48.501Z,100513.34
2022-10-21T18:56:17.259Z,100500.94
2022-10-21T18:58:46.762Z,100499.66
2022-10-21T19:01:15.101Z,100505.41
2022-10-21T19:03:42.899Z,100503.72
2022-10-21T19:06:30.755Z,100514.38
2022-10-21T19:09:03.677Z,100511.66
2022-10-21T19:11:30.582Z,100519.25
2022-10-21T19:14:00.128Z,100528.41
2022-10-21T19:16:26.810Z,100535.25
2022-10-21T19:18:54.672Z,100536.25
2022-10-21T19:21:21.744Z,100540.94
2022-10-21T19:23:48.487Z,100539.31
2022-10-21T19:26:18.805Z,100538.75
2022-10-21T19:28:47.987Z,100535.59
2022-10-21T19:31:14.976Z,100535.59
2022-10-21T19:33:41.713Z,100532.56
2022-10-21T19:36:10.006Z,100526.75
2022-10-21T19:38:44.104Z,100534.81
2022-10-21T19:41:14.978Z,100540.59
2022-10-21T19:43:42.659Z,100540.03
2022-10-21T19:46:14.316Z,100538.00
2022-10-21T19:48:40.867Z,100539.75
2022-10-21T19:51:15.553Z,100534.28
2022-10-21T19:53:45.044Z,100531.22
2022-10-21T19:56:12.494Z,100531.75
2022-10-21T19:58:43.622Z,100525.50
2022-10-21T20:01:13.886Z,100539.09
2022-10-21T20:03:42.691Z,100548.44
2022-10-21T20:08:42.296Z,100546.34
2022-10-21T20:11:11.844Z,100552.78
2022-10-21T20:13:38.586Z,100558.09
2022-10-21T20:16:05.748Z,100563.34
2022-10-21T20:18:32.486Z,100562.63
2022-10-21T20:20:59.259Z,100556.03
2022-10-21T20:23:26.784Z,100552.88
2022-10-21T20:25:58.365Z,100559.75
2022-10-21T20:28:26.714Z,100564.22
2022-10-21T20:30:58.133Z,100567.06
2022-10-21T20:33:24.909Z,100587.03
2022-10-21T20:35:51.376Z,100592.47
2022-10-21T20:38:17.849Z,100605.84
2022-10-21T20:40:44.628Z,100608.28
2022-10-21T20:43:11.023Z,100591.69
2022-10-21T20:45:37.492Z,100597.13
2022-10-21T20:48:04.203Z,100587.63
2022-10-21T20:50:30.601Z,100590.50
2022-10-21T20:52:57.036Z,100585.84
2022-10-21T20:55:23.405Z,100585.84
2022-10-21T20:57:49.788Z,100586.28
2022-10-21T21:00:16.289Z,100595.97
2022-10-21T21:02:42.686Z,100585.81
2022-10-21T21:05:09.571Z,100598.25
2022-10-21T21:07:36.378Z,100599.09
2022-10-21T21:10:03.994Z,100598.41
2022-10-21T21:12:30.555Z,100612.38
2022-10-21T21:14:56.970Z,100602.94
2022-10-21T21:17:23.481Z,100613.75
2022-10-21T21:19:49.916Z,100600.38
2022-10-21T21:22:16.344Z,100603.16
2022-10-21T21:24:42.854Z,100605.59
2022-10-21T21:27:09.335Z,100617.53
2022-10-21T21:29:36.034Z,100611.66
2022-10-21T21:32:02.455Z,100609.72
2022-10-21T21:34:28.902Z,100609.31
2022-10-21T21:36:55.336Z,100610.16
2022-10-21T21:39:21.757Z,100601.97
2022-10-21T21:41:48.298Z,100608.34
2022-10-21T21:44:14.770Z,100606.00
2022-10-21T21:46:41.239Z,100602.06
2022-10-21T21:49:07.624Z,100597.69
2022-10-21T21:51:36.166Z,100585.50
2022-10-21T21:54:04.753Z,100601.34
2022-10-21T21:56:31.270Z,100596.22
2022-10-21T21:58:58.139Z,100594.19
2022-10-21T22:01:27.780Z,100595.41
2022-10-21T22:03:55.185Z,100593.47
2022-10-21T22:08:51.514Z,100588.50
2022-10-21T22:11:20.838Z,100589.78
2022-10-21T22:13:47.674Z,100588.97
2022-10-21T22:16:15.934Z,100584.97
2022-10-21T22:18:43.115Z,100584.97
2022-10-21T22:21:12.717Z,100595.38
2022-10-21T22:23:40.327Z,100581.59
2022-10-21T22:26:07.568Z,100586.03
2022-10-21T22:28:36.975Z,100594.78
2022-10-21T22:31:07.177Z,100593.28
2022-10-21T22:33:34.530Z,100590.91
2022-10-21T22:36:01.551Z,100587.78
2022-10-21T22:38:29.360Z,100588.25
2022-10-21T22:40:57.897Z,100592.66
2022-10-21T22:43:26.059Z,100595.78
2022-10-21T22:45:55.270Z,100593.88
2022-10-21T22:48:27.756Z,100580.75
2022-10-21T22:50:54.530Z,100582.75
2022-10-21T22:53:21.093Z,100585.47
2022-10-21T22:55:47.563Z,100583.91
2022-10-21T22:58:19.848Z,100587.41
2022-10-21T23:00:50.056Z,100584.63
2022-10-21T23:03:18.449Z,100582.63
2022-10-21T23:05:45.199Z,100593.81
2022-10-21T23:08:11.685Z,100595.44
2022-10-21T23:10:38.239Z,100602.25
2022-10-21T23:13:05.975Z,100593.56
2022-10-21T23:15:36.290Z,100595.19
2022-10-21T23:18:03.091Z,100595.16
2022-10-21T23:20:29.684Z,100584.84
2022-10-21T23:22:56.143Z,100584.84
2022-10-21T23:25:23.149Z,100595.06
2022-10-21T23:27:50.240Z,100603.09
2022-10-21T23:30:17.810Z,100600.81
2022-10-21T23:32:44.886Z,100613.13
2022-10-21T23:35:11.320Z,100615.59
2022-10-21T23:37:38.175Z,100617.59
2022-10-21T23:40:05.774Z,100610.09
2022-10-21T23:42:32.208Z,100612.09
2022-10-21T23:44:58.601Z,100600.97
2022-10-21T23:47:25.134Z,100610.94
2022-10-21T23:49:51.540Z,100612.16
2022-10-21T23:52:17.923Z,100622.50
2022-10-21T23:54:47.295Z,100617.81
2022-10-21T23:57:13.711Z,100623.78
2022-10-21T23:59:40.116Z,100628.13
